South San Pedro, Texas
Current Conditions -  °F | °C
As of 8:35 AM on Friday 28 Nov 2014 (Local Time) from KRBO Reporting Station
Clear Clear  
Wind Chill: 57°   Ceiling: Unl
Heat Index: 57°   Visibility: 7mi
Dew Point: 56°   Wind: 0mph
Humidity: 97%   Direction: NA
Pressure: 30.32"   Gusts: NA
Location:  27.7757°N, 97.7554°W
Report Text: KRBO 281435Z AUTO 00000KT 7SM CLR 14/14 A3032 RMK AO2 T01400136
Loading
Personal Weather Stations






























Interactive Weather Map New forecast layout! Learn more

10-Day Weather Forecast

Advertisements
Track Severe Weather on mobile